Time;durP1;ratioP1;P1;durP2;ratioP2;P2;SDS_P1;SDS_P2;PMS_P1;PMS_P2;Temp;Humidity;BMP_temperature;BMP_pressure;BME280_temperature;BME280_humidity;BME280_pressure;Samples;Min_cycle;Max_cycle;Signal;HPM_P1;HPM_P2
2023/10/20 00:02:05;;;;;;;20.13;7.93;;;;;;;15.59;70.65;100194.63;5091525;28;20142;-80
2023/10/20 00:04:31;;;;;;;22.83;7.97;;;;;;;15.56;70.70;100192.25;5111020;28;20080;-80
2023/10/20 00:06:58;;;;;;;17.27;6.75;;;;;;;15.55;70.57;100191.38;5110830;28;20107;-80
2023/10/20 00:09:24;;;;;;;23.50;7.65;;;;;;;15.35;70.57;100157.44;5110680;28;20090;-80
2023/10/20 00:11:51;;;;;;;29.95;8.30;;;;;;;15.45;70.68;100182.53;5110604;28;20037;-80
2023/10/20 00:14:17;;;;;;;24.15;8.40;;;;;;;15.48;71.04;100184.06;5110636;28;20047;-80
2023/10/20 00:16:43;;;;;;;24.95;12.60;;;;;;;15.49;70.90;100170.38;5110855;28;20035;-80
2023/10/20 00:19:08;;;;;;;12.77;7.18;;;;;;;15.50;71.17;100165.81;5110802;28;20048;-80
2023/10/20 00:21:35;;;;;;;27.20;12.00;;;;;;;15.41;71.08;100155.94;5110564;28;20467;-80
2023/10/20 00:24:01;;;;;;;14.20;8.60;;;;;;;15.46;71.64;100158.97;5110595;28;20035;-80
2023/10/20 00:26:26;;;;;;;33.60;7.80;;;;;;;15.45;71.53;100157.28;5110360;28;20027;-80
2023/10/20 00:28:52;;;;;;;14.75;7.32;;;;;;;15.47;71.52;100161.53;5110773;28;20035;-80
2023/10/20 00:31:18;;;;;;;19.23;7.00;;;;;;;15.44;71.50;100161.03;5109743;28;20024;-79
2023/10/20 00:33:45;;;;;;;26.75;14.07;;;;;;;15.40;71.77;100159.66;5110430;28;20032;-80
2023/10/20 00:36:11;;;;;;;16.63;7.35;;;;;;;15.40;71.77;100159.66;5110165;28;20098;-79
2023/10/20 00:38:37;;;;;;;11.93;7.32;;;;;;;15.22;71.67;100125.44;5110248;28;20126;-80
2023/10/20 00:41:02;;;;;;;10.57;6.70;;;;;;;15.31;72.00;100147.09;5110277;28;20026;-80
2023/10/20 00:43:35;;;;;;;20.13;7.97;;;;;;;15.16;72.03;100131.50;5110174;28;20031;-80
2023/10/20 00:46:01;;;;;;;20.60;8.68;;;;;;;15.23;72.35;100147.91;5110340;28;20035;-80
2023/10/20 00:48:27;;;;;;;16.30;7.72;;;;;;;15.22;72.57;100144.38;5110170;28;20031;-80
2023/10/20 00:50:53;;;;;;;33.90;16.85;;;;;;;15.18;72.57;100132.19;5110140;28;20475;-80
2023/10/20 00:53:19;;;;;;;15.80;8.60;;;;;;;14.88;72.92;100089.47;5110259;28;20028;-80
2023/10/20 00:55:45;;;;;;;17.30;8.73;;;;;;;15.06;73.01;100117.25;5110454;28;20036;-79
2023/10/20 00:58:11;;;;;;;24.52;8.45;;;;;;;14.94;73.51;100112.31;5110368;28;20031;-79
2023/10/20 01:00:36;;;;;;;12.15;7.10;;;;;;;15.02;73.50;100124.00;5090807;28;20437;-80
2023/10/20 01:03:02;;;;;;;19.77;9.15;;;;;;;15.02;73.71;100118.59;5110098;28;20024;-79
2023/10/20 01:05:27;;;;;;;27.02;10.70;;;;;;;14.99;73.94;100129.75;5110107;28;20111;-79
2023/10/20 01:07:53;;;;;;;19.52;8.38;;;;;;;14.97;74.17;100123.66;5109937;28;20028;-80
2023/10/20 01:10:18;;;;;;;27.20;9.15;;;;;;;15.00;74.21;100126.06;5110277;28;20023;-79
2023/10/20 01:12:44;;;;;;;25.30;8.40;;;;;;;14.86;74.25;100113.13;5110191;28;20024;-80
2023/10/20 01:15:14;;;;;;;20.38;9.02;;;;;;;14.81;74.51;100120.91;5110082;28;20139;-79
2023/10/20 01:17:39;;;;;;;26.13;11.93;;;;;;;14.84;74.32;100126.00;5110003;28;20028;-80
2023/10/20 01:20:06;;;;;;;27.77;9.23;;;;;;;14.82;74.83;100127.16;5109954;28;20050;-80
2023/10/20 01:22:32;;;;;;;20.90;10.15;;;;;;;14.67;74.49;100108.00;5109970;28;20076;-80
2023/10/20 01:24:58;;;;;;;42.38;11.57;;;;;;;14.76;75.04;100117.84;5110055;28;20028;-80
2023/10/20 01:27:23;;;;;;;30.90;11.20;;;;;;;14.80;75.11;100137.31;5109799;28;20020;-80
2023/10/20 01:29:49;;;;;;;21.55;10.57;;;;;;;14.80;75.36;100134.63;5110008;28;20055;-80
2023/10/20 01:32:15;;;;;;;23.30;8.38;;;;;;;14.63;75.66;100106.63;5109743;28;20106;-80
2023/10/20 01:34:41;;;;;;;25.27;9.10;;;;;;;14.78;75.55;100129.34;5109817;28;20027;-78
2023/10/20 01:37:10;;;;;;;15.93;8.05;;;;;;;14.74;75.60;100130.69;5109526;28;20028;-79
2023/10/20 01:39:35;;;;;;;29.20;9.55;;;;;;;14.76;75.70;100128.69;5109887;28;20118;-79
2023/10/20 01:42:01;;;;;;;37.63;9.73;;;;;;;14.77;75.70;100108.69;5110015;28;20530;-79
2023/10/20 01:44:26;;;;;;;29.63;10.18;;;;;;;14.76;75.68;100112.44;5113106;28;20474;-79
2023/10/20 01:46:52;;;;;;;18.33;9.48;;;;;;;14.73;75.70;100114.63;5113568;28;20543;-79
2023/10/20 01:49:18;;;;;;;19.15;8.10;;;;;;;14.70;75.71;100116.66;5113468;28;20035;-79
2023/10/20 01:51:43;;;;;;;18.38;9.00;;;;;;;14.56;76.00;100089.34;5113165;28;20080;-80
2023/10/20 01:54:09;;;;;;;45.20;10.07;;;;;;;14.63;76.22;100102.06;5112149;28;20024;-79
2023/10/20 01:56:34;;;;;;;16.73;8.68;;;;;;;14.75;76.46;100113.44;5113370;28;20700;-80
2023/10/20 01:59:00;;;;;;;26.55;9.50;;;;;;;14.79;76.39;100111.25;5113307;28;20521;-80
2023/10/20 02:01:26;;;;;;;26.52;8.77;;;;;;;14.78;75.94;100101.44;5113416;27;20019;-80
2023/10/20 02:03:52;;;;;;;20.85;8.25;;;;;;;14.72;76.11;100089.41;5110817;28;20035;-79
2023/10/20 02:06:18;;;;;;;51.30;10.25;;;;;;;14.60;76.01;100069.06;5113297;28;20409;-79
2023/10/20 02:08:43;;;;;;;20.40;9.38;;;;;;;14.77;76.02;100100.56;5113111;28;20081;-79
2023/10/20 02:11:09;;;;;;;27.70;10.13;;;;;;;14.79;76.10;100092.31;5113306;28;20022;-80
2023/10/20 02:13:35;;;;;;;20.05;9.10;;;;;;;14.71;76.16;100082.28;5113079;28;20035;-80
2023/10/20 02:16:01;;;;;;;17.33;8.70;;;;;;;14.67;76.29;100078.22;5112833;28;20097;-79
2023/10/20 02:18:26;;;;;;;14.77;8.43;;;;;;;14.63;76.79;100082.28;5112822;28;20028;-79
2023/10/20 02:21:03;;;;;;;35.00;10.88;;;;;;;14.71;76.72;100079.59;5112713;28;20024;-79
2023/10/20 02:23:30;;;;;;;21.42;9.25;;;;;;;14.81;76.52;100088.41;5112897;28;20479;-80
2023/10/20 02:26:00;;;;;;;32.58;9.77;;;;;;;14.86;76.36;100085.22;5093314;28;20503;-80
2023/10/20 02:28:26;;;;;;;43.33;10.30;;;;;;;14.92;76.32;100089.97;5112949;28;20509;-81
2023/10/20 02:30:56;;;;;;;24.00;9.98;;;;;;;15.02;75.70;100087.94;5112662;28;20475;-80
2023/10/20 02:33:22;;;;;;;18.95;9.45;;;;;;;15.07;75.47;100083.75;5112526;28;20024;-80
2023/10/20 02:35:48;;;;;;;26.85;10.32;;;;;;;15.09;75.72;100084.44;5112665;28;20080;-80
2023/10/20 02:38:14;;;;;;;17.90;9.38;;;;;;;15.13;75.27;100069.53;5112788;28;20471;-80
2023/10/20 02:40:40;;;;;;;27.95;10.50;;;;;;;15.27;75.08;100082.41;5112284;28;20503;-80
2023/10/20 02:43:06;;;;;;;96.03;20.02;;;;;;;15.32;74.70;100081.06;5112479;28;20096;-80
2023/10/20 02:45:32;;;;;;;47.15;11.57;;;;;;;15.35;74.52;100091.56;5110340;28;20134;-81
2023/10/20 02:47:58;;;;;;;32.20;10.38;;;;;;;15.33;74.41;100078.19;5112638;28;20058;-80
2023/10/20 02:50:26;;;;;;;38.03;9.90;;;;;;;15.39;74.38;100088.34;5112824;28;20084;-79
2023/10/20 02:52:52;;;;;;;15.60;8.68;;;;;;;15.30;74.38;100081.22;5112382;28;20023;-79
2023/10/20 02:55:17;;;;;;;15.23;9.18;;;;;;;15.29;74.18;100081.41;5111481;28;20039;-79
2023/10/20 02:57:43;;;;;;;27.27;8.32;;;;;;;15.32;73.97;100081.06;5112085;28;20024;-78
2023/10/20 03:00:11;;;;;;;27.58;10.45;;;;;;;15.34;73.83;100089.88;5112475;28;20512;-81
2023/10/20 03:02:36;;;;;;;18.08;10.85;;;;;;;15.31;74.52;100098.34;5112151;28;20024;-80
2023/10/20 03:05:03;;;;;;;26.45;10.68;;;;;;;15.32;74.81;100094.63;5112727;28;20092;-80
2023/10/20 03:07:28;;;;;;;27.20;12.45;;;;;;;15.14;75.27;100073.94;5112028;28;20449;-80
2023/10/20 03:09:55;;;;;;;31.42;14.60;;;;;;;15.28;75.10;100091.41;5092681;28;20035;-81
2023/10/20 03:12:21;;;;;;;29.75;16.75;;;;;;;15.11;75.50;100063.44;5112044;28;20039;-81
2023/10/20 03:14:46;;;;;;;32.67;16.52;;;;;;;15.17;75.68;100084.44;5112121;28;20062;-80
2023/10/20 03:17:12;;;;;;;44.25;17.52;;;;;;;15.17;75.67;100083.56;5111893;28;20128;-80
2023/10/20 03:19:40;;;;;;;33.88;17.52;;;;;;;14.92;75.99;100052.06;5111832;28;20042;-80
2023/10/20 03:22:05;;;;;;;29.45;15.55;;;;;;;14.99;76.45;100070.19;5111976;28;20076;-80
2023/10/20 03:24:32;;;;;;;30.70;16.45;;;;;;;15.01;76.67;100073.59;5111835;28;20036;-80
2023/10/20 03:26:58;;;;;;;44.38;18.55;;;;;;;14.99;76.95;100070.19;5111652;28;20035;-80
2023/10/20 03:29:24;;;;;;;34.85;17.00;;;;;;;15.04;76.94;100057.00;5111723;28;20427;-80
2023/10/20 03:31:50;;;;;;;34.13;17.35;;;;;;;15.00;76.96;100055.63;5111525;28;20036;-80
2023/10/20 03:34:15;;;;;;;34.90;17.10;;;;;;;15.07;77.24;100064.81;5112060;28;20023;-80
2023/10/20 03:36:41;;;;;;;59.97;18.13;;;;;;;15.00;77.46;100060.19;5111704;28;20024;-81
2023/10/20 03:39:27;;;;;;;40.20;18.90;;;;;;;14.81;77.57;100038.84;5111864;28;20455;-81
2023/10/20 03:41:52;;;;;;;42.92;17.08;;;;;;;14.91;77.56;100064.75;5110777;27;20096;-81
2023/10/20 03:44:21;;;;;;;46.28;16.10;;;;;;;14.82;78.53;100054.94;5111357;27;20413;-79
2023/10/20 03:46:49;;;;;;;30.15;15.20;;;;;;;14.88;78.40;100059.69;5110934;28;20039;-79
2023/10/20 03:49:16;;;;;;;52.33;16.45;;;;;;;14.90;78.52;100057.66;5111074;28;20050;-79
2023/10/20 03:51:49;;;;;;;74.43;16.58;;;;;;;14.69;78.60;100013.94;5110918;28;20046;-80
2023/10/20 03:54:19;;;;;;;41.55;15.93;;;;;;;14.80;78.55;100029.88;5111134;28;20031;-80
2023/10/20 03:56:45;;;;;;;62.08;16.05;;;;;;;15.01;78.53;100048.38;5110917;28;20471;-79
2023/10/20 03:59:11;;;;;;;85.35;19.20;;;;;;;15.04;78.60;100046.19;5108597;28;20043;-80
2023/10/20 04:01:38;;;;;;;89.05;20.85;;;;;;;15.07;78.74;100035.00;5111013;28;20063;-79
2023/10/20 04:04:08;;;;;;;64.95;20.25;;;;;;;15.17;78.61;100035.66;5111009;28;20070;-80
2023/10/20 04:06:35;;;;;;;110.95;25.23;;;;;;;15.17;78.48;100024.84;5109343;28;20033;-80
2023/10/20 04:09:01;;;;;;;71.47;21.95;;;;;;;15.36;78.18;100044.47;5110859;28;20024;-80
2023/10/20 04:11:27;;;;;;;48.55;16.67;;;;;;;15.30;77.72;100023.47;5110703;28;20031;-81
2023/10/20 04:13:54;;;;;;;45.88;16.30;;;;;;;15.40;77.61;100032.28;5110626;28;20024;-80
2023/10/20 04:16:19;;;;;;;44.83;14.45;;;;;;;15.48;77.50;100026.88;5110856;28;20041;-80
2023/10/20 04:18:46;;;;;;;53.42;14.52;;;;;;;15.59;77.16;100038.25;5110767;28;20027;-81
2023/10/20 04:21:12;;;;;;;35.75;11.73;;;;;;;15.69;77.03;100041.59;5110592;28;20051;-79
2023/10/20 04:23:38;;;;;;;24.23;10.43;;;;;;;15.78;76.77;100045.13;5110233;28;20542;-80
2023/10/20 04:26:18;;;;;;;17.50;9.52;;;;;;;15.87;76.27;100043.28;5110266;28;20118;-80
2023/10/20 04:28:44;;;;;;;20.05;9.73;;;;;;;15.97;75.75;100039.34;5110135;28;20036;-79
2023/10/20 05:01:26;;;;;;;43.92;12.93;;;;;;;16.69;72.18;99996.66;5007321;28;20037;-80
2023/10/20 05:04:00;;;;;;;37.25;11.48;;;;;;;16.90;71.80;100032.16;5007053;28;20103;-81
2023/10/20 05:06:42;;;;;;;29.52;12.05;;;;;;;17.00;71.28;100037.38;5007297;28;20184;-81
2023/10/20 05:09:14;;;;;;;90.28;18.13;;;;;;;17.07;71.21;100044.59;5041565;28;20449;-80
2023/10/20 05:11:40;;;;;;;60.88;15.90;;;;;;;17.08;70.98;100046.31;5046835;28;20025;-80
2023/10/20 05:14:06;;;;;;;73.80;14.45;;;;;;;17.11;70.62;100039.66;5046297;28;20513;-87
2023/10/20 05:16:34;;;;;;;66.30;16.65;;;;;;;17.11;70.53;100045.09;5047029;28;20124;-81
2023/10/20 05:19:03;;;;;;;69.35;19.35;;;;;;;17.20;70.44;100065.75;5049502;28;20748;-80
2023/10/20 05:21:29;;;;;;;66.05;18.10;;;;;;;17.18;70.25;100068.66;5051046;28;20033;-79
2023/10/20 05:23:54;;;;;;;52.42;17.92;;;;;;;17.03;69.73;100037.81;5050710;28;20036;-79
2023/10/20 05:26:20;;;;;;;59.63;18.40;;;;;;;17.15;69.43;100060.88;5050504;28;20660;-80
2023/10/20 05:28:46;;;;;;;71.72;19.17;;;;;;;16.95;69.25;100012.59;5050456;28;20170;-79
2023/10/20 05:31:11;;;;;;;115.22;21.30;;;;;;;17.19;69.39;100059.47;5050620;28;20112;-78
2023/10/20 05:33:37;;;;;;;54.95;18.27;;;;;;;17.19;69.17;100051.31;5111688;28;20031;-79
2023/10/20 05:36:03;;;;;;;52.10;18.45;;;;;;;17.24;69.07;100054.34;5113396;28;20023;-79
2023/10/20 05:38:29;;;;;;;53.90;18.38;;;;;;;17.17;69.01;100042.50;5113707;28;20396;-79
2023/10/20 05:40:59;;;;;;;124.82;23.30;;;;;;;17.24;69.14;100046.19;5113341;28;20028;-79
2023/10/20 05:43:25;;;;;;;85.93;21.30;;;;;;;17.29;69.27;100049.19;5113423;28;20042;-79
2023/10/20 05:45:51;;;;;;;107.25;24.52;;;;;;;17.29;69.45;100038.31;5113362;28;20027;-79
2023/10/20 05:48:16;;;;;;;71.38;22.25;;;;;;;17.38;69.49;100042.66;5113592;28;20035;-80
2023/10/20 05:50:42;;;;;;;54.65;16.95;;;;;;;17.41;69.40;100042.31;5113099;28;20047;-78
2023/10/20 05:53:08;;;;;;;50.30;15.82;;;;;;;17.36;69.37;100023.00;5113242;28;20404;-80
2023/10/20 05:55:34;;;;;;;34.70;14.27;;;;;;;17.49;69.23;100041.38;5113081;28;20069;-80
2023/10/20 05:58:00;;;;;;;55.08;16.60;;;;;;;17.58;69.04;100042.19;5113048;28;20019;-80
2023/10/20 06:00:25;;;;;;;23.23;12.98;;;;;;;17.70;68.73;100047.00;5113233;28;20562;-80
2023/10/20 06:02:51;;;;;;;21.35;11.77;;;;;;;17.77;68.76;100053.38;5112954;28;20164;-80
2023/10/20 06:05:16;;;;;;;38.35;14.18;;;;;;;17.67;68.23;100030.22;5113398;28;20050;-79
2023/10/20 06:07:43;;;;;;;32.75;13.27;;;;;;;17.84;68.21;100053.50;5112777;28;20042;-79
2023/10/20 06:10:11;;;;;;;28.20;13.02;;;;;;;17.89;68.02;100048.31;5112912;28;20019;-79
2023/10/20 06:12:37;;;;;;;40.10;15.07;;;;;;;17.88;67.84;100033.06;5113060;28;20050;-80
2023/10/20 06:15:02;;;;;;;35.03;14.10;;;;;;;17.71;67.49;99996.16;5112659;28;20491;-79
2023/10/20 06:17:28;;;;;;;27.55;13.40;;;;;;;18.08;67.58;100044.22;5112544;28;20020;-80
2023/10/20 06:19:53;;;;;;;30.38;12.77;;;;;;;17.90;67.36;100003.78;5111266;28;20132;-78
2023/10/20 06:22:19;;;;;;;20.48;10.80;;;;;;;18.12;67.03;100030.06;5112840;28;20019;-79
2023/10/20 06:24:45;;;;;;;17.77;11.40;;;;;;;18.20;66.76;100038.13;5112464;28;20640;-79
2023/10/20 06:27:11;;;;;;;29.10;13.32;;;;;;;18.22;66.61;100029.78;5112920;28;20103;-79
2023/10/20 06:29:55;;;;;;;20.60;12.05;;;;;;;18.28;66.26;100035.31;5111257;28;20027;-80
2023/10/20 06:32:32;;;;;;;31.38;14.07;;;;;;;18.32;66.63;100041.22;5112919;28;20448;-80
2023/10/20 06:35:00;;;;;;;48.10;17.08;;;;;;;18.42;66.33;100042.63;5112287;28;20028;-79
2023/10/20 06:37:38;;;;;;;24.20;11.90;;;;;;;18.46;66.08;100033.03;5112905;28;20092;-77
2023/10/20 06:40:04;;;;;;;19.15;12.25;;;;;;;18.53;66.04;100037.78;5112611;28;20402;-77
2023/10/20 06:42:30;;;;;;;28.45;13.32;;;;;;;18.55;65.80;100039.25;5112391;28;20071;-77
2023/10/20 06:44:55;;;;;;;27.90;13.77;;;;;;;18.59;65.50;100031.56;5112127;28;20051;-78
2023/10/20 06:47:21;;;;;;;44.28;18.20;;;;;;;18.63;65.63;100032.84;5112293;28;20016;-79
2023/10/20 06:49:47;;;;;;;41.03;18.92;;;;;;;18.69;65.59;100037.53;5112352;28;20421;-79
2023/10/20 06:52:17;;;;;;;46.28;17.17;;;;;;;18.72;65.57;100021.66;5112277;28;20031;-79
2023/10/20 06:54:49;;;;;;;37.85;17.02;;;;;;;18.77;65.41;100023.81;5112379;28;20031;-79
2023/10/20 06:57:15;;;;;;;46.22;18.15;;;;;;;18.80;65.36;100024.28;5112275;28;20072;-78
2023/10/20 06:59:40;;;;;;;31.00;15.23;;;;;;;18.72;65.29;100009.91;5112121;28;20032;-78
2023/10/20 07:02:06;;;;;;;47.03;17.58;;;;;;;18.85;65.17;100021.81;5111689;28;20395;-79
2023/10/20 07:04:31;;;;;;;37.33;17.33;;;;;;;18.85;65.20;100015.50;5111912;28;20088;-80
2023/10/20 07:06:57;;;;;;;40.60;20.42;;;;;;;18.90;65.12;100023.94;5111781;28;20028;-79
2023/10/20 07:09:23;;;;;;;37.40;18.05;;;;;;;18.94;65.12;100028.81;5111856;28;20028;-79
2023/10/20 07:11:49;;;;;;;38.95;17.13;;;;;;;18.80;64.83;99990.72;5111592;28;20026;-79
2023/10/20 07:14:14;;;;;;;30.13;14.75;;;;;;;19.07;64.54;100032.72;5111577;28;20035;-80
2023/10/20 07:16:39;;;;;;;33.40;13.10;;;;;;;19.10;64.62;100021.44;5111387;27;20031;-80
2023/10/20 07:19:06;;;;;;;24.60;12.00;;;;;;;19.15;64.31;100022.53;5110409;28;20110;-80
2023/10/20 07:21:32;;;;;;;19.40;12.50;;;;;;;19.03;64.24;99996.81;5111703;28;20522;-81
2023/10/20 07:23:57;;;;;;;20.55;11.13;;;;;;;19.24;63.68;100017.78;5111422;28;20107;-78
2023/10/20 07:26:24;;;;;;;26.38;11.38;;;;;;;19.23;63.58;100027.88;5111479;28;20023;-80
2023/10/20 07:28:49;;;;;;;15.38;11.00;;;;;;;19.27;63.59;100020.97;5092000;28;20044;-78
2023/10/20 07:31:21;;;;;;;14.52;10.35;;;;;;;19.35;63.19;100018.13;5111178;28;20089;-80
2023/10/20 07:33:47;;;;;;;34.20;12.25;;;;;;;19.40;62.93;100021.13;5111431;28;20031;-78
2023/10/20 07:36:12;;;;;;;35.78;11.93;;;;;;;19.43;62.86;100015.28;5111296;28;20034;-79
2023/10/20 07:38:38;;;;;;;71.47;14.65;;;;;;;19.48;62.91;100010.06;5111223;28;20023;-78
2023/10/20 07:41:07;;;;;;;35.47;11.80;;;;;;;19.61;62.36;100013.94;5110771;28;20015;-79
2023/10/20 07:43:33;;;;;;;25.25;12.43;;;;;;;19.69;62.57;100011.09;5111037;28;20081;-79
2023/10/20 07:45:59;;;;;;;17.40;10.95;;;;;;;19.75;62.43;99999.38;5110932;28;20055;-79
2023/10/20 07:48:26;;;;;;;21.52;10.00;;;;;;;19.88;61.69;100016.66;5111204;28;20031;-79
2023/10/20 07:50:52;;;;;;;14.27;10.27;;;;;;;19.98;61.32;100013.59;5111166;28;20082;-79
2023/10/20 07:53:20;;;;;;;13.38;9.57;;;;;;;19.90;61.03;99983.72;5110744;28;20031;-79
2023/10/20 07:55:45;;;;;;;23.85;9.88;;;;;;;20.10;60.61;100009.25;5110864;28;20027;-78
2023/10/20 07:58:11;;;;;;;26.15;8.35;;;;;;;20.13;60.34;100006.13;5110518;28;20023;-80
2023/10/20 08:00:36;;;;;;;30.35;9.55;;;;;;;20.18;60.22;99995.47;5110498;28;20517;-79
2023/10/20 08:03:03;;;;;;;24.98;10.15;;;;;;;20.28;60.20;99989.63;5110672;28;20024;-79
2023/10/20 08:05:28;;;;;;;18.08;9.65;;;;;;;20.40;60.00;99996.19;5110777;28;20028;-78
2023/10/20 08:07:55;;;;;;;27.88;9.80;;;;;;;20.50;59.87;100002.97;5110767;28;20028;-79
2023/10/20 08:10:23;;;;;;;24.45;9.43;;;;;;;20.45;59.24;99969.97;5110558;28;20063;-79
2023/10/20 08:12:49;;;;;;;15.35;8.57;;;;;;;20.68;59.24;99987.91;5110640;28;20032;-79
2023/10/20 08:15:14;;;;;;;27.33;8.98;;;;;;;20.75;58.89;99978.69;5110320;28;20051;-79
2023/10/20 08:17:40;;;;;;;25.75;9.30;;;;;;;20.77;59.05;99956.59;5110392;28;20030;-78
2023/10/20 08:20:09;;;;;;;21.13;9.02;;;;;;;21.01;57.89;99973.25;5110307;28;20044;-79
2023/10/20 08:22:35;;;;;;;18.83;8.45;;;;;;;21.11;57.89;99984.69;5110373;28;20088;-78
2023/10/20 08:25:00;;;;;;;19.55;8.63;;;;;;;21.28;57.60;99976.91;5110434;28;20485;-80
2023/10/20 08:27:26;;;;;;;29.98;7.18;;;;;;;21.38;56.97;99988.25;5110121;28;20020;-80
2023/10/20 08:29:55;;;;;;;16.02;6.55;;;;;;;21.44;56.88;99971.00;5110776;28;20467;-80
2023/10/20 08:32:20;;;;;;;20.02;8.07;;;;;;;21.64;56.31;99981.94;5110241;28;20046;-79
2023/10/20 08:34:46;;;;;;;18.83;6.45;;;;;;;21.74;55.71;99976.91;5110251;28;20445;-79
2023/10/20 08:37:11;;;;;;;26.08;7.60;;;;;;;21.77;55.78;99957.31;5110124;28;20047;-79
2023/10/20 08:39:37;;;;;;;15.35;7.97;;;;;;;21.99;55.36;99980.66;5109810;28;20031;-79
2023/10/20 08:42:16;;;;;;;17.77;6.78;;;;;;;22.12;54.82;99985.25;5110038;28;20072;-80
2023/10/20 08:44:43;;;;;;;11.10;6.05;;;;;;;22.21;54.54;99982.06;5109642;28;20131;-80
2023/10/20 08:47:11;;;;;;;8.90;6.15;;;;;;;22.33;53.93;99984.97;5110156;28;20384;-79
2023/10/20 08:49:39;;;;;;;11.43;5.97;;;;;;;22.46;53.92;99957.53;5109960;28;20051;-79
2023/10/20 08:52:07;;;;;;;25.23;6.55;;;;;;;22.54;53.74;99961.91;5109526;28;20031;-79
2023/10/20 08:54:33;;;;;;;15.15;7.15;;;;;;;22.72;53.19;99962.03;5109675;28;20543;-80
2023/10/20 08:56:59;;;;;;;73.55;43.25;;;;;;;22.89;52.62;99965.13;5110293;28;20111;-79
2023/10/20 08:59:24;;;;;;;16.98;7.63;;;;;;;23.08;52.30;99969.66;5110344;28;20126;-79
2023/10/20 09:01:51;;;;;;;15.82;7.57;;;;;;;23.17;51.58;99971.06;5109973;28;20031;-80
2023/10/20 09:04:26;;;;;;;21.60;6.35;;;;;;;23.26;50.81;99977.94;5109934;28;20133;-79
2023/10/20 09:06:52;;;;;;;17.70;5.28;;;;;;;23.34;50.71;99969.44;5109820;28;20080;-78
2023/10/20 09:09:19;;;;;;;15.88;5.25;;;;;;;23.34;49.94;99963.94;5107723;28;20756;-79
2023/10/20 09:11:45;;;;;;;18.40;5.25;;;;;;;23.35;50.12;99954.66;5109965;28;20465;-79
2023/10/20 09:14:12;;;;;;;16.63;5.85;;;;;;;23.52;49.82;99966.78;5109912;28;20130;-79
2023/10/20 09:16:38;;;;;;;23.33;5.50;;;;;;;23.62;49.54;99969.88;5109637;28;20108;-79
2023/10/20 09:19:04;;;;;;;13.43;4.88;;;;;;;23.69;49.29;99975.28;5109450;28;20046;-80
2023/10/20 09:21:30;;;;;;;8.75;4.97;;;;;;;23.71;49.24;99951.19;5109540;28;20483;-79
2023/10/20 09:24:00;;;;;;;7.90;4.47;;;;;;;23.91;48.83;99968.31;5109499;28;20027;-78
2023/10/20 09:26:26;;;;;;;15.50;5.65;;;;;;;24.01;48.58;99957.63;5109874;28;20161;-80
2023/10/20 09:28:54;;;;;;;7.43;4.55;;;;;;;24.09;47.94;99943.59;5109775;28;20027;-80
2023/10/20 09:31:21;;;;;;;18.92;5.20;;;;;;;24.12;47.99;99947.84;5109604;28;20031;-79
2023/10/20 09:33:47;;;;;;;13.60;5.72;;;;;;;24.17;48.09;99940.56;5109521;28;20042;-79
2023/10/20 09:36:14;;;;;;;16.75;6.63;;;;;;;24.16;47.81;99916.06;5109508;28;20028;-79
2023/10/20 09:38:42;;;;;;;11.48;4.93;;;;;;;24.35;47.68;99943.31;5109722;28;20028;-79
2023/10/20 09:41:14;;;;;;;18.48;4.88;;;;;;;24.30;47.68;99912.09;5109820;28;20057;-80
2023/10/20 09:43:45;;;;;;;16.25;5.80;;;;;;;24.50;47.35;99922.81;5109286;28;20047;-80
2023/10/20 09:46:53;;;;;;;16.33;5.18;;;;;;;24.66;47.11;99922.16;5109372;28;20391;-80
2023/10/20 09:49:21;;;;;;;14.80;5.20;;;;;;;24.72;46.78;99911.06;5046435;28;20078;-81
2023/10/20 09:51:49;;;;;;;17.45;4.50;;;;;;;24.69;46.43;99892.28;5029837;28;20412;-80
2023/10/20 09:54:18;;;;;;;15.68;5.07;;;;;;;24.81;45.73;99890.44;5046416;28;20033;-79
2023/10/20 09:56:45;;;;;;;16.50;4.97;;;;;;;24.99;46.02;99910.69;5046928;28;20036;-79
2023/10/20 09:59:20;;;;;;;11.43;4.80;;;;;;;25.04;45.88;99900.69;5046767;28;20091;-80
2023/10/20 10:01:46;;;;;;;20.70;4.20;;;;;;;25.06;45.44;99889.41;5046281;28;20063;-79
2023/10/20 10:04:13;;;;;;;13.85;4.43;;;;;;;25.21;45.30;99898.91;5047470;28;20036;-79
2023/10/20 10:06:42;;;;;;;19.83;4.63;;;;;;;25.31;45.06;99904.66;5049597;28;20058;-79
2023/10/20 10:09:08;;;;;;;17.50;4.18;;;;;;;25.33;44.74;99896.16;5049811;28;20029;-79
2023/10/20 10:11:42;;;;;;;7.88;3.63;;;;;;;25.36;44.81;99887.41;5049775;28;20033;-79
2023/10/20 10:14:17;;;;;;;14.07;4.70;;;;;;;25.47;44.55;99869.25;5049605;28;20037;-79
2023/10/20 10:16:55;;;;;;;15.10;5.47;;;;;;;25.38;44.43;99853.06;5049683;28;20029;-79
2023/10/20 10:19:26;;;;;;;24.23;5.10;;;;;;;25.60;44.06;99875.34;5049664;28;20052;-80
2023/10/20 10:21:53;;;;;;;14.52;4.70;;;;;;;25.69;44.21;99868.41;5049959;28;20485;-79
2023/10/20 10:24:19;;;;;;;20.88;4.68;;;;;;;25.60;43.79;99831.28;5049546;28;20036;-79
2023/10/20 10:26:52;;;;;;;9.73;4.78;;;;;;;25.84;43.62;99865.97;5099317;28;20040;-78
2023/10/20 10:29:37;;;;;;;15.55;4.80;;;;;;;25.97;43.47;99868.47;5094532;28;20039;-81
2023/10/20 10:32:10;;;;;;;12.95;4.47;;;;;;;26.10;43.39;99869.28;5112398;28;20484;-80
2023/10/20 10:34:45;;;;;;;15.65;4.25;;;;;;;26.16;42.98;99857.31;5112496;28;20076;-80
2023/10/20 10:37:11;;;;;;;17.08;4.65;;;;;;;26.34;42.99;99871.75;5110898;28;20046;-80
2023/10/20 10:39:37;;;;;;;22.23;5.25;;;;;;;26.35;42.43;99856.88;5112370;28;20023;-80
2023/10/20 10:42:03;;;;;;;17.38;4.05;;;;;;;26.41;42.22;99860.56;5112254;28;20024;-80
2023/10/20 10:44:36;;;;;;;22.52;4.57;;;;;;;26.56;42.27;99857.25;5112570;27;20028;-80
2023/10/20 10:47:03;;;;;;;11.55;4.88;;;;;;;26.50;41.58;99839.78;5112268;28;20038;-79
2023/10/20 10:49:32;;;;;;;12.85;4.85;;;;;;;26.65;41.29;99866.81;5111809;28;20023;-79
2023/10/20 10:52:04;;;;;;;27.33;4.90;;;;;;;26.66;41.46;99869.34;5112444;28;20031;-80
2023/10/20 10:54:33;;;;;;;15.27;5.18;;;;;;;26.72;41.43;99868.34;5112042;28;20106;-79
2023/10/20 10:57:00;;;;;;;13.45;5.43;;;;;;;26.79;41.02;99860.72;5111792;28;20027;-80
2023/10/20 10:59:27;;;;;;;24.30;5.13;;;;;;;26.92;40.72;99865.97;5111539;28;20027;-79
2023/10/20 11:01:53;;;;;;;18.27;4.28;;;;;;;27.00;41.23;99859.22;5112169;28;20069;-80
2023/10/20 11:04:19;;;;;;;20.35;4.28;;;;;;;27.08;40.39;99860.69;5111828;28;20139;-80
2023/10/20 11:06:44;;;;;;;18.15;5.30;;;;;;;27.12;40.17;99857.19;5112118;28;20032;-80
2023/10/20 11:09:13;;;;;;;22.55;4.93;;;;;;;27.27;40.13;99859.38;5111637;28;20027;-80
2023/10/20 11:11:45;;;;;;;12.82;4.88;;;;;;;27.28;39.71;99844.44;5111700;28;20039;-80
2023/10/20 11:14:12;;;;;;;13.85;4.93;;;;;;;27.38;39.77;99858.41;5092533;28;20134;-79
2023/10/20 11:16:38;;;;;;;16.90;4.03;;;;;;;27.48;39.31;99853.09;5111151;28;20028;-79
2023/10/20 11:19:04;;;;;;;14.15;4.63;;;;;;;27.47;38.78;99832.06;5111462;28;20027;-80
2023/10/20 11:21:48;;;;;;;14.18;4.35;;;;;;;27.63;38.76;99850.56;5111788;28;20023;-80
2023/10/20 11:24:34;;;;;;;13.60;5.25;;;;;;;27.64;38.98;99843.94;5109331;28;20044;-80
2023/10/20 11:27:01;;;;;;;16.55;5.07;;;;;;;27.52;39.05;99829.41;5111392;28;20027;-80
2023/10/20 11:29:31;;;;;;;18.52;4.68;;;;;;;27.31;38.71;99795.06;5111379;28;20024;-80
2023/10/20 11:32:05;;;;;;;21.80;4.53;;;;;;;27.67;38.73;99831.53;5111533;28;20066;-79
2023/10/20 11:34:37;;;;;;;16.27;5.35;;;;;;;27.80;38.97;99834.75;5111233;28;20099;-79
2023/10/20 11:37:04;;;;;;;14.52;4.72;;;;;;;27.81;38.34;99839.19;5111306;28;20035;-80
2023/10/20 11:39:36;;;;;;;12.30;4.63;;;;;;;27.77;38.58;99832.50;5110953;28;20035;-80
2023/10/20 11:42:02;;;;;;;27.25;4.63;;;;;;;27.92;37.94;99832.69;5111108;28;20464;-80
2023/10/20 11:44:28;;;;;;;18.55;4.20;;;;;;;27.96;38.23;99842.16;5110937;28;20088;-80
2023/10/20 11:46:54;;;;;;;18.15;4.82;;;;;;;27.92;38.14;99813.34;5111191;28;20020;-80
2023/10/20 11:49:21;;;;;;;18.80;5.00;;;;;;;28.19;37.70;99823.66;5111120;28;20066;-79